FlightSpace

Additional description
No additional description
Departure
  • Poznań-Ławica Airport (EPPO)
  • Local date: Feb 13, 2014
  • Start-up time: 10:07:59 CET (UTC +01:00)
  • Block off time: 10:07:59 CET (UTC +01:00)
  • Take off time: 10:27:32 CET (UTC +01:00)
  • METAR:
    EPPO 130930Z 17007KT 9999 FEW046 04/M01 Q1003 R10/19//95
Destination
  • Poznań-Ławica Airport (EPPO)
  • Local date: Feb 13, 2014
  • Shut-down time: 11:49:51 CET (UTC +01:00)
  • Block on time: 11:49:51 CET (UTC +01:00)
  • Landing time: 11:44:23 CET (UTC +01:00)
  • METAR:
    EPPO 131030Z 18008KT CAVOK 04/M02 Q1002 R10/19//95

Flight summary
Hobbs time: 01:41 Block time: 01:41 Flight time: 01:16
Distance: 171 NM Max altitude/level: 5842 ft Number of Landings: 1
Fuel burned: 71.48 l Average fuel consumption: 42.1 l/h
Comments